Aviation Digital Data Service (ADDS)

Output produced by METARs form (1523 UTC 22 October 2014)
found at http://aviationweather.gov/adds/metars/
 
KBHB 221420Z 2214/2312 03014G20KT P6SM -RA SCT015 OVC050 
     FM221800 05016G25KT 2SM -RA SCT008 OVC025 
     FM230900 06020G28KT 2SM -RA OVC008 AMD LTD TO CLD VIS AND WIND